Gillam Airport
CYGX : now visible

Airfield :











YOU CAN JOIN US ON...

 
LOGIN :

Register | Disclaimer

   EN    FR    IT 

 









Legend :    VFR   Marginal VFR   IFR   Intensive IFR   Very Intensive IFR
Visi :
Ceiling :
>= 8 km
>= 3000ft
5 to 8 km
1000 to 3000 ft
1500m to 5 km
500 to 1000 ft
800 to 1500m
200 to 500 ft
< 800m
< 200 ft
Symbols :   Thunderstorms  Fog  Heavy snow  Heavy precipitations  Wind > 20 kt






- Airport Elevation : 476 ft
- IATA code : YGX


CYGX - Gillam

CURRENT METAR :
  • 232200Z 21007KT 15SM SCT200 SCT230 M13/M16 A3016 RMK CI3CC1 SLP231

EXPIRED METARs :
  • 232100Z 21011KT 15SM SCT230 M13/M17 A3017 RMK CI4 SLP234
  • 232000Z 21010G18KT 15SM FEW240 M13/M17 A3018 RMK CI2 SLP240
  • 231955Z 21010G17KT 15SM FEW240 M13/M17 A3018 RMK CI2 SLP240

TAF TAF CYGX
Valid from the 23 at 19:00 until the 24 at 07:00 UTC


231838Z 2319/2407 20012KT P6SM -SN OVC012
BECMG 2319/2321 P6SM NSW FEW012
FM240600 22008KT P6SM SCT010
TEMPO 2406/2407 BKN010 RMK NXT FCST BY 240100Z



MET'MAP, your aeronautical weather chart ! - Copyright ORBIFLY December 2007 - Disclaimer

ORBIFLY MET'MAP TEAM :

Programming & Development : Alexandra Zaïnal
Concept & original design : Baudouin d'Aumeries
Assistance for programming : Marc-Olivier Méhu
Technical & hardware support : Manuel Goepfert

Contact : metmap@orbifly.com




SOURCES & CREDITS :

   NOAA       Earth
Advisory